Terminal Aerodrome Forecast
Issued by NWS

Home | Current Version | Previous Version | Text Only | Print | Product List | Glossary Off
Versions: 1 2 3 4 5 6 7 8 9 10 11 12 13 14 15 16 17 18 19 20

961
FTUS43 KTOP 200520
TAFFOE
TAF
KFOE 200520Z 2006/2106 15008KT P6SM SCT020 OVC100
     FM200800 16010KT 3SM TSRA BR OVC022CB
      TEMPO 2009/2011 2SM TSRA BR OVC009CB
     FM201200 17011KT 6SM BR VCSH OVC011
     FM201600 19011KT P6SM BKN035
     FM201900 22014KT P6SM SCT045 BKN120
     FM210300 31008KT P6SM SCT150=

USA.gov is the U.S. government's official web portal to all federal, state and local government web resources and services.